createdAt,value
2023-03-21T06:02:56.869Z,22.63
2023-03-21T06:05:33.783Z,23.77
2023-03-21T06:08:03.779Z,21.73
2023-03-21T06:10:40.772Z,22.38
2023-03-21T06:13:17.830Z,21.83
2023-03-21T06:15:47.931Z,21.38
2023-03-21T06:18:26.835Z,21.60
2023-03-21T06:20:57.584Z,20.35
2023-03-21T06:23:33.862Z,20.48
2023-03-21T06:26:10.822Z,20.58
2023-03-21T06:28:40.884Z,20.10
2023-03-21T06:31:17.872Z,20.27
2023-03-21T06:33:50.537Z,19.60
2023-03-21T06:36:27.856Z,19.83
2023-03-21T06:39:04.857Z,19.73
2023-03-21T06:41:35.022Z,19.23
2023-03-21T06:44:11.827Z,18.83
2023-03-21T06:46:48.973Z,19.75
2023-03-21T06:49:22.140Z,19.48
2023-03-21T06:51:58.909Z,18.52
2023-03-21T06:54:29.131Z,18.00
2023-03-21T06:57:05.876Z,19.75
2023-03-21T06:59:42.863Z,18.77
2023-03-21T07:02:14.105Z,17.90
2023-03-21T07:04:52.837Z,18.58
2023-03-21T07:07:23.074Z,18.35
2023-03-21T07:09:59.851Z,18.42
2023-03-21T07:12:29.913Z,16.83
2023-03-21T07:15:06.931Z,16.50
2023-03-21T07:17:37.054Z,16.30
2023-03-21T07:20:18.883Z,16.42
2023-03-21T07:22:49.016Z,15.85
2023-03-21T07:25:26.877Z,15.98
2023-03-21T07:27:57.173Z,16.42
2023-03-21T07:30:33.923Z,15.27
2023-03-21T07:33:03.968Z,16.20
2023-03-21T07:35:43.988Z,15.48
2023-03-21T07:38:16.846Z,16.15
2023-03-21T07:40:53.877Z,15.63
2023-03-21T07:43:24.073Z,16.92
2023-03-21T07:46:01.003Z,16.45
2023-03-21T07:48:31.944Z,16.90
2023-03-21T07:51:12.904Z,16.20
2023-03-21T07:53:43.887Z,15.80
2023-03-21T07:56:19.943Z,15.07
2023-03-21T07:58:56.930Z,16.42
2023-03-21T08:01:28.181Z,17.63
2023-03-21T08:04:04.970Z,16.67
2023-03-21T08:06:37.578Z,16.13
2023-03-21T08:09:13.934Z,15.90
2023-03-21T08:11:44.066Z,15.57
2023-03-21T08:14:20.964Z,15.15
2023-03-21T08:16:51.092Z,15.02
2023-03-21T08:19:27.979Z,15.00
2023-03-21T08:22:09.057Z,14.20
2023-03-21T08:24:39.200Z,14.60
2023-03-21T08:27:16.034Z,14.25
2023-03-21T08:29:52.933Z,14.75
2023-03-21T08:32:28.454Z,13.25
2023-03-21T08:35:04.995Z,13.13
2023-03-21T08:37:43.983Z,12.55
2023-03-21T08:40:17.135Z,13.88
2023-03-21T08:42:54.027Z,12.75
2023-03-21T08:45:24.540Z,12.23
2023-03-21T08:48:00.997Z,12.20
2023-03-21T08:50:31.844Z,12.70
2023-03-21T08:53:10.996Z,11.50
2023-03-21T08:55:41.253Z,11.40
2023-03-21T08:58:18.054Z,11.60
2023-03-21T09:00:48.140Z,11.13
2023-03-21T09:03:27.022Z,10.40
2023-03-21T09:05:58.426Z,9.90
2023-03-21T09:08:38.016Z,9.88
2023-03-21T09:11:08.838Z,10.70
2023-03-21T09:13:45.055Z,10.52
2023-03-21T09:16:22.100Z,9.70
2023-03-21T09:18:55.823Z,10.40
2023-03-21T09:21:34.077Z,10.38
2023-03-21T09:24:07.366Z,10.73
2023-03-21T09:26:44.103Z,9.90
2023-03-21T09:29:16.036Z,9.13
2023-03-21T09:34:30.067Z,10.90
2023-03-21T09:37:00.119Z,10.30
2023-03-21T09:39:39.121Z,10.63
2023-03-21T09:42:22.877Z,10.32
2023-03-21T09:45:15.116Z,10.02
2023-03-21T09:50:38.143Z,10.63
2023-03-21T09:53:14.964Z,9.80
2023-03-21T09:55:54.082Z,9.98
2023-03-21T09:58:37.152Z,9.93
2023-03-21T10:01:22.430Z,10.23
2023-03-21T10:04:01.241Z,9.25
2023-03-21T10:06:32.220Z,9.40
2023-03-21T10:09:16.145Z,8.73
2023-03-21T10:11:53.408Z,8.88
2023-03-21T10:14:35.128Z,9.65
2023-03-21T10:17:20.615Z,10.15
2023-03-21T10:20:04.139Z,9.07
2023-03-21T10:22:41.102Z,9.25
2023-03-21T10:25:18.015Z,9.40
2023-03-21T10:28:00.120Z,9.48
2023-03-21T10:33:17.159Z,9.63
2023-03-21T10:35:59.197Z,8.88
2023-03-21T10:41:06.092Z,9.38
2023-03-21T10:43:42.177Z,8.70
2023-03-21T10:46:22.253Z,8.80
2023-03-21T10:49:03.283Z,8.65
2023-03-21T10:51:38.543Z,9.90
2023-03-21T10:54:18.109Z,9.32
2023-03-21T10:56:57.070Z,9.20
2023-03-21T10:59:44.221Z,9.63
2023-03-21T11:02:22.561Z,9.35
2023-03-21T11:05:00.444Z,9.55
2023-03-21T11:07:40.165Z,9.77
2023-03-21T11:10:30.466Z,9.70
2023-03-21T11:13:11.217Z,9.65
2023-03-21T11:16:03.218Z,9.85
2023-03-21T11:18:35.009Z,10.43
2023-03-21T11:23:54.206Z,10.10
2023-03-21T11:26:32.817Z,9.73
2023-03-21T11:29:11.205Z,9.35
2023-03-21T11:31:44.983Z,10.10
2023-03-21T11:34:37.270Z,9.77
2023-03-21T11:37:07.834Z,9.82
2023-03-21T11:39:48.285Z,10.10
2023-03-21T11:42:40.252Z,10.23
2023-03-21T11:45:18.223Z,10.15
2023-03-21T11:47:59.272Z,10.25
2023-03-21T11:50:35.756Z,9.73
2023-03-21T11:53:34.298Z,11.00
2023-03-21T11:56:32.275Z,10.55
2023-03-21T11:59:30.844Z,11.00
2023-03-21T12:02:42.324Z,10.00
2023-03-21T12:05:22.778Z,8.48
2023-03-21T12:08:09.282Z,9.10
2023-03-21T12:10:56.300Z,8.63
2023-03-21T12:13:44.249Z,8.88
2023-03-21T12:16:36.376Z,8.05
2023-03-21T12:22:34.259Z,8.70
2023-03-21T12:25:19.288Z,7.75
2023-03-21T12:27:57.685Z,8.02
2023-03-21T12:30:46.321Z,8.55
2023-03-21T12:33:58.310Z,8.07
2023-03-21T12:36:44.158Z,8.60
2023-03-21T12:39:37.278Z,8.63
2023-03-21T12:42:41.669Z,8.15
2023-03-21T12:45:34.218Z,7.97
2023-03-21T12:48:22.557Z,8.50
2023-03-21T12:51:03.296Z,9.00
2023-03-21T12:53:47.761Z,9.07
2023-03-21T12:56:33.312Z,8.88
2023-03-21T12:59:16.858Z,9.50
2023-03-21T13:01:57.421Z,8.75
2023-03-21T13:04:39.839Z,8.07
2023-03-21T13:07:23.368Z,8.30
2023-03-21T13:10:02.450Z,8.85
2023-03-21T13:12:48.383Z,8.90
2023-03-21T13:15:55.437Z,9.00
2023-03-21T13:18:59.245Z,9.07
2023-03-21T13:21:55.338Z,9.20
2023-03-21T13:24:35.328Z,9.50
2023-03-21T13:27:17.418Z,9.40
2023-03-21T13:29:54.662Z,9.20
2023-03-21T13:32:39.412Z,8.90
2023-03-21T13:35:21.303Z,9.50
2023-03-21T13:38:02.406Z,9.07
2023-03-21T13:40:41.292Z,9.17
2023-03-21T13:43:44.366Z,9.30
2023-03-21T13:46:50.566Z,9.10
2023-03-21T13:49:39.413Z,9.45
2023-03-21T13:52:36.417Z,8.95
2023-03-21T13:55:17.624Z,8.65
2023-03-21T13:57:57.410Z,9.60
2023-03-21T14:00:35.138Z,8.70
